Cochiti Pueblo, New Mexico
Current Conditions -  °F | °C
As of 9:53 PM on Friday 28 Nov 2014 (Local Time) from KSAF Reporting Station
Clear Clear  
Wind Chill: 41°   Ceiling: Unl
Heat Index: 41°   Visibility: 10mi
Dew Point: 15°   Wind: 3mph
Humidity: 35%   Direction: 130°SE
Pressure: 30.1"   Gusts: NA
Location:  35.61°N, 106.34°W
Report Text: KSAF 290453Z AUTO 13003KT 10SM CLR 05/M09 A3010 RMK AO2 SLP154 T00501094
Loading
Personal Weather Stations






























Interactive Weather Map New forecast layout! Learn more

10-Day Weather Forecast

Advertisements
Track Severe Weather on mobile